Time;durP1;ratioP1;P1;durP2;ratioP2;P2;SDS_P1;SDS_P2;PMS_P1;PMS_P2;Temp;Humidity;BMP_temperature;BMP_pressure;BME280_temperature;BME280_humidity;BME280_pressure;Samples;Min_cycle;Max_cycle;Signal;HPM_P1;HPM_P2
2023/09/10 00:00:18;;;;;;;19.02;13.43;;;;;;;23.13;71.18;101585.41;5076050;28;20192;-65
2023/09/10 00:02:44;;;;;;;17.55;13.60;;;;;;;23.12;71.16;101586.31;5094371;28;20492;-65
2023/09/10 00:05:09;;;;;;;16.05;11.85;;;;;;;23.09;71.30;101583.72;5093444;28;20409;-65
2023/09/10 00:07:35;;;;;;;19.92;12.75;;;;;;;23.08;71.25;101590.91;5094127;28;20035;-65
2023/09/10 00:10:00;;;;;;;15.50;11.65;;;;;;;23.11;70.43;101585.44;5093812;28;20081;-66
2023/09/10 00:12:25;;;;;;;19.08;13.18;;;;;;;23.04;71.32;101583.88;5093928;28;20492;-66
2023/09/10 00:14:51;;;;;;;16.40;12.75;;;;;;;23.21;70.66;101580.63;5094087;28;20039;-65
2023/09/10 00:17:16;;;;;;;19.15;14.07;;;;;;;23.26;70.61;101588.63;5093810;28;20028;-65
2023/09/10 00:19:42;;;;;;;19.75;13.70;;;;;;;23.22;70.73;101583.31;5093754;28;20478;-65
2023/09/10 00:22:07;;;;;;;25.20;15.27;;;;;;;23.30;70.34;101579.47;5093826;28;20417;-66
2023/09/10 00:24:32;;;;;;;15.82;12.50;;;;;;;23.28;69.67;101579.53;5075932;28;20103;-65
2023/09/10 00:26:58;;;;;;;19.63;13.52;;;;;;;23.23;69.98;101585.06;5093590;28;20382;-65
2023/09/10 00:29:23;;;;;;;19.63;13.80;;;;;;;23.24;69.92;101586.81;5093524;28;20103;-65
2023/09/10 00:31:48;;;;;;;19.58;14.73;;;;;;;23.19;70.35;101585.22;5093567;28;20085;-65
2023/09/10 00:34:14;;;;;;;27.45;15.25;;;;;;;23.20;70.52;101577.06;5075652;28;20023;-65
2023/09/10 00:36:40;;;;;;;23.10;15.50;;;;;;;23.17;70.85;101585.28;5093320;28;20039;-65
2023/09/10 00:39:05;;;;;;;21.35;16.40;;;;;;;23.22;71.36;101579.72;5075476;28;20024;-65
2023/09/10 00:41:31;;;;;;;20.25;15.82;;;;;;;23.23;70.93;101576.09;5093460;28;20028;-65
2023/09/10 00:43:56;;;;;;;29.17;18.02;;;;;;;23.25;70.86;101571.53;5093577;28;20073;-66
2023/09/10 00:46:21;;;;;;;26.98;18.95;;;;;;;23.34;71.20;101582.06;5093523;28;20024;-65
2023/09/10 00:48:47;;;;;;;27.35;18.83;;;;;;;23.36;71.20;101577.50;5093250;28;20355;-65
2023/09/10 00:51:14;;;;;;;24.15;18.27;;;;;;;23.40;71.21;101584.56;5093278;28;20485;-65
2023/09/10 00:53:41;;;;;;;24.50;18.67;;;;;;;23.42;70.99;101573.72;5093436;28;20093;-65
2023/09/10 00:56:07;;;;;;;23.75;18.27;;;;;;;23.47;70.82;101583.44;5093265;28;20030;-65
2023/09/10 00:58:32;;;;;;;24.80;18.98;;;;;;;23.47;70.49;101580.75;5093209;28;20143;-65
2023/09/10 01:00:58;;;;;;;27.85;17.90;;;;;;;23.46;69.59;101573.56;5093440;28;20551;-66
2023/09/10 01:03:26;;;;;;;20.13;15.77;;;;;;;23.33;69.80;101574.88;5092433;28;20543;-65
2023/09/10 01:05:51;;;;;;;22.23;16.73;;;;;;;23.20;70.58;101579.75;5092783;28;20097;-65
2023/09/10 01:08:17;;;;;;;23.95;16.40;;;;;;;23.18;70.76;101578.94;5092977;28;20486;-65
2023/09/10 01:11:10;;;;;;;21.98;16.90;;;;;;;23.06;70.73;101565.81;5092917;28;20032;-65
2023/09/10 01:13:49;;;;;;;21.08;16.60;;;;;;;23.01;70.86;101570.47;5093448;28;20027;-66
2023/09/10 01:16:30;;;;;;;22.17;16.73;;;;;;;22.98;71.06;101570.53;5093025;28;20028;-64
2023/09/10 01:19:04;;;;;;;21.10;16.35;;;;;;;22.82;71.77;101572.75;5092999;28;20032;-64
2023/09/10 01:21:43;;;;;;;24.23;16.98;;;;;;;22.81;71.95;101571.00;5093236;28;20028;-66
2023/09/10 01:24:46;;;;;;;22.17;17.10;;;;;;;22.74;72.19;101572.13;5092963;28;20016;-66
2023/09/10 01:27:13;;;;;;;22.42;17.25;;;;;;;22.64;72.61;101571.47;5092770;28;20039;-66
2023/09/10 01:29:38;;;;;;;23.23;16.67;;;;;;;22.62;72.68;101569.75;5093072;28;20059;-65
2023/09/10 01:32:09;;;;;;;23.05;16.27;;;;;;;22.62;72.59;101577.84;5074853;28;20071;-65
2023/09/10 01:34:41;;;;;;;21.98;17.15;;;;;;;22.69;72.72;101582.13;5092810;28;20028;-66
2023/09/10 01:37:20;;;;;;;21.58;17.67;;;;;;;22.72;72.22;101572.13;5092787;28;20032;-66
2023/09/10 01:39:51;;;;;;;24.25;19.23;;;;;;;22.59;73.28;101577.91;5092798;28;20020;-66
2023/09/10 01:42:18;;;;;;;24.05;18.25;;;;;;;22.58;72.75;101584.25;5092642;28;20024;-65
2023/09/10 01:44:45;;;;;;;21.90;16.63;;;;;;;22.54;72.43;101577.16;5092185;28;20482;-66
2023/09/10 01:47:11;;;;;;;22.75;16.17;;;;;;;22.63;72.14;101585.00;5092812;28;20016;-66
2023/09/10 01:49:38;;;;;;;20.92;16.27;;;;;;;22.65;72.33;101575.91;5092523;28;20170;-66
2023/09/10 01:52:04;;;;;;;24.70;17.23;;;;;;;22.55;72.58;101582.50;5092660;28;20024;-65
2023/09/10 01:54:29;;;;;;;20.55;17.08;;;;;;;22.54;72.09;101583.44;5092598;28;20385;-66
2023/09/10 01:56:54;;;;;;;19.15;16.73;;;;;;;;;;5092467;28;20035;-66
2023/09/10 01:59:20;;;;;;;24.63;17.57;;;;;;;22.41;73.48;101582.88;5092856;28;20046;-66
2023/09/10 02:01:45;;;;;;;23.08;17.40;;;;;;;22.39;73.57;101591.91;5092595;28;20367;-66
2023/09/10 02:04:11;;;;;;;22.40;17.33;;;;;;;22.30;73.52;101584.97;5092382;28;20062;-67
2023/09/10 02:06:36;;;;;;;22.08;16.58;;;;;;;22.30;74.17;101589.47;5092571;28;20501;-65
2023/09/10 02:09:02;;;;;;;19.15;16.00;;;;;;;22.33;73.89;101589.41;5092454;28;20024;-66
2023/09/10 02:11:28;;;;;;;22.38;16.00;;;;;;;22.32;72.96;101595.72;5092421;28;20020;-65
2023/09/10 02:13:53;;;;;;;21.83;15.35;;;;;;;22.32;73.16;101585.81;5092736;28;20020;-65
2023/09/10 02:16:19;;;;;;;19.30;16.23;;;;;;;22.23;73.85;101594.16;5092479;28;20120;-66
2023/09/10 02:18:45;;;;;;;21.70;16.63;;;;;;;22.16;74.20;101596.09;5093128;28;20474;-66
2023/09/10 02:21:11;;;;;;;23.33;16.67;;;;;;;22.08;74.94;101598.06;5096366;28;20381;-66
2023/09/10 02:23:37;;;;;;;24.30;17.45;;;;;;;22.03;75.00;101594.59;5077793;28;20020;-66
2023/09/10 02:26:03;;;;;;;20.85;16.52;;;;;;;22.00;74.74;101597.34;5095927;28;20024;-65
2023/09/10 02:28:28;;;;;;;21.90;16.75;;;;;;;21.97;75.45;101592.06;5095843;28;20024;-66
2023/09/10 02:30:54;;;;;;;21.98;15.57;;;;;;;22.04;74.62;101593.66;5095887;28;20034;-65
2023/09/10 02:33:19;;;;;;;19.77;15.65;;;;;;;22.02;74.49;101598.22;5095775;28;20066;-66
2023/09/10 02:35:45;;;;;;;20.17;16.92;;;;;;;22.04;74.91;101596.38;5095672;28;20020;-64
2023/09/10 02:38:10;;;;;;;18.08;16.10;;;;;;;22.01;74.51;101599.13;5095816;28;20457;-65
2023/09/10 02:40:35;;;;;;;18.67;15.48;;;;;;;22.06;74.41;101594.53;5095554;28;20461;-66
2023/09/10 02:43:01;;;;;;;18.35;14.57;;;;;;;22.07;73.95;101587.34;5095613;28;20028;-66
2023/09/10 02:45:26;;;;;;;19.73;15.98;;;;;;;22.04;73.95;101587.41;5095607;28;20024;-66
2023/09/10 02:47:52;;;;;;;19.83;16.40;;;;;;;21.99;74.29;101591.09;5095585;28;20050;-66
2023/09/10 02:50:17;;;;;;;19.85;15.32;;;;;;;21.94;74.08;101592.13;5077551;28;20107;-66
2023/09/10 02:52:42;;;;;;;18.95;16.10;;;;;;;21.90;74.21;101590.44;5095375;28;20028;-67
2023/09/10 02:55:08;;;;;;;20.40;15.18;;;;;;;21.86;74.18;101588.75;5095333;28;20039;-66
2023/09/10 02:57:34;;;;;;;17.63;14.77;;;;;;;21.85;74.60;101587.88;5077468;28;20432;-66
2023/09/10 02:59:59;;;;;;;18.20;14.00;;;;;;;21.78;74.58;101591.63;5095385;28;20052;-66
2023/09/10 03:02:25;;;;;;;18.67;13.85;;;;;;;21.78;75.04;101594.31;5077167;28;20477;-65
2023/09/10 03:04:50;;;;;;;17.85;14.43;;;;;;;21.66;75.56;101589.22;5094912;28;20427;-65
2023/09/10 03:07:16;;;;;;;21.98;16.50;;;;;;;21.69;75.66;101600.78;5095113;28;20075;-65
2023/09/10 03:09:41;;;;;;;23.17;18.38;;;;;;;21.69;76.65;101595.41;5095118;28;20024;-66
2023/09/10 03:12:27;;;;;;;27.38;23.08;;;;;;;21.77;76.07;101589.84;5095308;28;20024;-65
2023/09/10 03:14:52;;;;;;;21.63;16.08;;;;;;;21.78;75.41;101605.06;5077062;28;20024;-66
2023/09/10 03:17:18;;;;;;;20.88;18.00;;;;;;;21.86;75.39;101588.75;5094497;28;20475;-67
2023/09/10 03:19:44;;;;;;;24.55;18.05;;;;;;;21.88;75.51;101587.78;5094894;28;20363;-65
2023/09/10 03:22:10;;;;;;;20.20;17.85;;;;;;;21.82;75.29;101595.13;5094906;28;20513;-66
2023/09/10 03:24:37;;;;;;;22.98;17.88;;;;;;;21.82;74.96;101582.56;5095118;28;20035;-65
2023/09/10 03:27:02;;;;;;;23.45;18.42;;;;;;;21.81;75.19;101586.16;5094640;28;20032;-66
2023/09/10 03:29:28;;;;;;;25.38;20.38;;;;;;;21.80;75.74;101588.88;5094700;28;20031;-65
2023/09/10 03:31:55;;;;;;;31.73;21.55;;;;;;;21.69;76.58;101583.78;5093783;28;20020;-65
2023/09/10 03:34:20;;;;;;;25.50;21.10;;;;;;;21.73;76.39;101572.00;5076581;28;20028;-65
2023/09/10 03:36:45;;;;;;;34.25;24.35;;;;;;;21.73;77.18;101580.09;5094550;28;20028;-65
2023/09/10 03:39:12;;;;;;;30.83;23.95;;;;;;;21.67;77.31;101580.22;5094812;28;20537;-65
2023/09/10 03:41:37;;;;;;;29.38;23.45;;;;;;;21.58;77.52;101586.69;5094400;28;20380;-66
2023/09/10 03:44:03;;;;;;;28.52;24.00;;;;;;;21.51;77.87;101587.78;5094360;28;20111;-65
2023/09/10 03:46:28;;;;;;;30.48;25.15;;;;;;;21.50;78.40;101586.00;5094496;28;20056;-66
2023/09/10 03:48:53;;;;;;;32.72;26.85;;;;;;;21.42;78.90;101593.38;5094461;28;20024;-66
2023/09/10 03:51:19;;;;;;;31.92;27.10;;;;;;;21.45;79.11;101582.50;5094541;28;20119;-66
2023/09/10 03:53:44;;;;;;;30.52;25.08;;;;;;;21.46;78.74;101587.00;5094308;28;20028;-65
2023/09/10 03:56:10;;;;;;;32.33;25.33;;;;;;;21.49;78.19;101581.53;5094168;28;20043;-66
2023/09/10 03:58:35;;;;;;;27.45;23.23;;;;;;;21.54;77.80;101579.66;5094072;28;20024;-66
2023/09/10 04:01:00;;;;;;;35.40;28.58;;;;;;;21.60;78.80;101582.19;5075990;28;20028;-65
2023/09/10 04:03:26;;;;;;;38.33;30.42;;;;;;;21.67;79.47;101580.22;5094123;28;20024;-65
2023/09/10 04:05:52;;;;;;;36.22;29.33;;;;;;;21.75;79.10;101575.53;5093643;28;20048;-66
2023/09/10 04:08:18;;;;;;;39.53;31.63;;;;;;;21.79;78.96;101570.97;5094283;28;20046;-66
2023/09/10 04:10:43;;;;;;;38.55;30.92;;;;;;;21.81;78.78;101564.66;5093791;28;20412;-65
2023/09/10 04:13:09;;;;;;;38.83;29.90;;;;;;;21.88;78.20;101568.94;5075802;28;20081;-66
2023/09/10 04:15:34;;;;;;;36.72;29.98;;;;;;;21.91;78.03;101568.00;5093839;28;20099;-65
2023/09/10 04:18:00;;;;;;;36.63;29.67;;;;;;;21.85;77.19;101574.41;5093836;28;20474;-66
2023/09/10 04:20:25;;;;;;;37.50;31.50;;;;;;;21.77;78.14;101560.25;5075621;28;20036;-66
2023/09/10 04:22:50;;;;;;;41.63;32.22;;;;;;;21.83;78.43;101578.94;5093985;28;20378;-66
2023/09/10 04:25:16;;;;;;;40.03;31.73;;;;;;;21.82;78.51;101569.09;5093530;28;20051;-65
2023/09/10 04:27:41;;;;;;;40.10;31.52;;;;;;;21.85;78.70;101573.53;5093642;28;20032;-66
2023/09/10 04:30:07;;;;;;;40.88;31.42;;;;;;;21.87;78.83;101568.97;5093461;28;20031;-66
2023/09/10 04:32:34;;;;;;;42.78;32.17;;;;;;;21.75;78.77;101567.47;5093454;28;20032;-66
2023/09/10 04:34:59;;;;;;;33.97;29.20;;;;;;;21.79;78.81;101570.97;5093619;28;20109;-66
2023/09/10 04:37:26;;;;;;;41.38;31.67;;;;;;;21.75;79.08;101565.69;5093371;28;20055;-66
2023/09/10 04:39:51;;;;;;;38.28;31.23;;;;;;;21.76;78.69;101569.25;5093496;28;20363;-66
2023/09/10 04:42:17;;;;;;;39.90;32.08;;;;;;;21.79;78.79;101573.66;5093070;28;20088;-66
2023/09/10 04:44:42;;;;;;;36.75;32.30;;;;;;;21.79;79.03;101570.97;5093359;28;20025;-65
2023/09/10 04:47:08;;;;;;;38.05;31.77;;;;;;;21.80;79.13;101570.03;5093584;28;20030;-66
2023/09/10 04:49:33;;;;;;;40.50;32.72;;;;;;;21.79;79.24;101577.22;5093272;28;20031;-65
2023/09/10 04:51:58;;;;;;;38.08;32.22;;;;;;;21.79;78.77;101568.28;5093551;28;20380;-65
2023/09/10 04:54:24;;;;;;;40.88;33.35;;;;;;;21.81;79.08;101578.09;5093300;28;20408;-66
2023/09/10 04:56:53;;;;;;;39.60;32.05;;;;;;;21.80;78.73;101567.34;5093193;28;20024;-65
2023/09/10 04:59:19;;;;;;;46.28;35.10;;;;;;;21.72;79.17;101573.81;5093345;28;20055;-66
2023/09/10 05:01:44;;;;;;;41.30;34.90;;;;;;;21.60;79.91;101576.81;5092989;28;20115;-66
2023/09/10 05:04:09;;;;;;;44.35;34.72;;;;;;;21.59;79.67;101579.53;5092651;28;20032;-66
2023/09/10 05:06:35;;;;;;;44.80;36.08;;;;;;;21.60;79.81;101579.50;5092228;28;20066;-66
2023/09/10 05:09:00;;;;;;;44.95;34.83;;;;;;;21.63;80.01;101576.75;5092586;28;20086;-65
2023/09/10 05:11:26;;;;;;;47.08;32.90;;;;;;;21.65;79.82;101582.06;5092328;28;20447;-66
2023/09/10 05:13:51;;;;;;;42.30;35.25;;;;;;;21.66;80.12;101586.53;5092845;28;20051;-66
2023/09/10 05:16:17;;;;;;;46.90;35.92;;;;;;;21.70;80.01;101589.09;5092687;28;20487;-66
2023/09/10 05:18:42;;;;;;;48.08;36.38;;;;;;;21.73;79.60;101591.72;5092593;28;20032;-66
2023/09/10 05:21:08;;;;;;;45.80;37.22;;;;;;;21.68;79.96;101590.06;5092601;28;20021;-66
2023/09/10 05:23:34;;;;;;;42.72;36.28;;;;;;;21.71;79.59;101588.22;5092346;28;20090;-66
2023/09/10 05:26:03;;;;;;;49.92;37.05;;;;;;;21.70;80.69;101591.78;5074295;28;20028;-65
2023/09/10 05:28:29;;;;;;;47.67;36.13;;;;;;;21.71;80.00;101595.38;5092339;28;20017;-66
2023/09/10 05:30:55;;;;;;;47.05;36.97;;;;;;;21.69;80.24;101592.72;5092577;28;20020;-66
2023/09/10 05:33:20;;;;;;;50.45;37.30;;;;;;;21.72;80.38;101591.78;5092417;28;20035;-65
2023/09/10 05:36:04;;;;;;;45.05;38.15;;;;;;;21.76;79.78;101593.47;5092496;28;20374;-66
2023/09/10 05:38:29;;;;;;;43.90;37.30;;;;;;;21.78;79.91;101597.00;5074480;28;20066;-65
2023/09/10 05:41:01;;;;;;;45.88;37.30;;;;;;;21.76;79.83;101590.78;5092475;28;20078;-65
2023/09/10 05:43:29;;;;;;;46.83;38.23;;;;;;;21.79;80.34;101595.19;5092321;28;20111;-66
2023/09/10 05:45:55;;;;;;;47.88;38.67;;;;;;;21.82;80.09;101595.13;5092170;28;20264;-66
2023/09/10 05:48:21;;;;;;;45.22;38.15;;;;;;;21.87;80.29;101595.88;5092572;28;20027;-65
2023/09/10 05:50:47;;;;;;;47.95;37.35;;;;;;;21.93;80.06;101595.75;5092060;28;20052;-66
2023/09/10 05:53:12;;;;;;;48.40;38.78;;;;;;;21.97;79.95;101598.34;5092313;28;20438;-65
2023/09/10 05:55:40;;;;;;;44.80;36.90;;;;;;;22.08;79.13;101597.19;5095801;28;20066;-66
2023/09/10 05:58:05;;;;;;;51.67;39.28;;;;;;;22.12;79.49;101598.88;5096306;28;20063;-66
2023/09/10 06:00:31;;;;;;;50.83;38.70;;;;;;;22.15;79.55;101598.84;5096026;28;20060;-66
2023/09/10 06:02:56;;;;;;;40.80;34.00;;;;;;;22.22;78.68;101605.81;5077789;28;20062;-66
2023/09/10 06:05:22;;;;;;;46.33;37.08;;;;;;;22.29;79.04;101604.75;5095546;28;20052;-66
2023/09/10 06:07:50;;;;;;;46.72;37.75;;;;;;;22.39;78.51;101605.38;5095994;28;20036;-66
2023/09/10 06:10:15;;;;;;;51.15;38.00;;;;;;;22.49;78.58;101609.63;5095677;28;20412;-66
2023/09/10 06:12:41;;;;;;;47.03;39.50;;;;;;;;;;5095776;28;20476;-66
2023/09/10 06:15:07;;;;;;;46.77;38.77;;;;;;;22.65;78.09;101613.63;5077564;28;20073;-65
2023/09/10 06:17:33;;;;;;;47.78;38.00;;;;;;;22.75;77.84;101620.56;5095937;28;20278;-66
2023/09/10 06:19:59;;;;;;;45.72;38.90;;;;;;;22.84;76.83;101616.72;5095657;28;20363;-67
2023/09/10 06:22:24;;;;;;;50.55;39.70;;;;;;;22.98;76.92;101617.25;5095742;28;20024;-65
2023/09/10 06:24:50;;;;;;;44.85;38.20;;;;;;;23.08;76.70;101609.78;5095830;28;20101;-66
2023/09/10 06:27:15;;;;;;;45.67;37.72;;;;;;;23.17;77.05;101622.13;5095418;28;20488;-67
2023/09/10 06:29:41;;;;;;;45.63;38.33;;;;;;;23.23;75.66;101622.81;5095519;28;20040;-66
2023/09/10 06:32:06;;;;;;;47.72;37.95;;;;;;;23.34;75.72;101618.91;5095520;28;20414;-66
2023/09/10 06:34:32;;;;;;;43.55;35.33;;;;;;;23.42;75.14;101615.06;5095342;28;20483;-67
2023/09/10 06:36:58;;;;;;;46.15;36.40;;;;;;;23.53;75.02;101630.94;5095236;28;20342;-66
2023/09/10 06:39:24;;;;;;;48.35;37.88;;;;;;;23.65;74.55;101638.69;5095515;28;20101;-67
2023/09/10 06:41:53;;;;;;;48.33;37.72;;;;;;;23.62;74.67;101633.34;5095150;28;20370;-66
2023/09/10 06:44:18;;;;;;;43.85;36.33;;;;;;;23.80;74.82;101633.72;5077062;28;20084;-65
2023/09/10 06:46:44;;;;;;;46.83;35.83;;;;;;;23.93;74.74;101627.00;5095519;28;20576;-67
2023/09/10 06:49:09;;;;;;;47.83;36.30;;;;;;;23.98;74.19;101633.13;5095049;28;20467;-65
2023/09/10 06:51:35;;;;;;;42.50;35.30;;;;;;;24.13;73.94;101632.63;5095158;28;20032;-67
2023/09/10 06:54:01;;;;;;;44.45;34.80;;;;;;;24.26;72.63;101622.31;5095133;28;20052;-67
2023/09/10 06:56:29;;;;;;;46.30;36.35;;;;;;;24.31;72.75;101632.94;5094876;28;20413;-65
2023/09/10 06:58:54;;;;;;;41.88;34.67;;;;;;;24.52;72.44;101634.94;5095054;28;20020;-66
2023/09/10 07:01:21;;;;;;;44.30;35.28;;;;;;;24.61;71.61;101639.16;5094759;28;20496;-66
2023/09/10 07:03:47;;;;;;;42.28;34.63;;;;;;;24.80;72.33;101636.69;5076919;28;20470;-65
2023/09/10 07:06:12;;;;;;;40.90;33.47;;;;;;;24.77;71.73;101639.50;5093891;28;20056;-65
2023/09/10 07:08:38;;;;;;;44.35;33.95;;;;;;;24.84;71.32;101636.53;5094603;28;20081;-66
2023/09/10 07:11:03;;;;;;;41.92;33.63;;;;;;;25.09;71.13;101639.22;5094590;28;20036;-67
2023/09/10 07:13:30;;;;;;;39.53;31.90;;;;;;;25.18;70.05;101641.63;5094875;28;20029;-68
2023/09/10 07:15:55;;;;;;;39.70;31.65;;;;;;;25.30;69.29;101642.94;5094564;28;20055;-66
2023/09/10 07:18:20;;;;;;;40.15;32.22;;;;;;;25.46;69.27;101637.84;5094548;28;20477;-66
2023/09/10 07:20:46;;;;;;;40.42;32.65;;;;;;;25.58;69.10;101648.19;5094352;28;20031;-66
2023/09/10 07:23:11;;;;;;;42.20;31.85;;;;;;;25.81;68.60;101641.91;5094236;28;20525;-66
2023/09/10 07:25:39;;;;;;;39.75;31.95;;;;;;;25.91;68.23;101646.00;5094330;28;20020;-67
2023/09/10 07:28:05;;;;;;;36.03;28.58;;;;;;;26.00;67.04;101636.63;5094079;28;20165;-68
2023/09/10 07:30:31;;;;;;;37.13;29.00;;;;;;;26.01;67.03;101643.81;5094247;28;20032;-66
2023/09/10 07:32:56;;;;;;;36.75;28.95;;;;;;;26.17;66.58;101641.34;5094191;28;20120;-66
2023/09/10 07:35:21;;;;;;;36.63;27.20;;;;;;;26.30;66.08;101641.72;5094081;28;20028;-67
2023/09/10 07:37:47;;;;;;;33.20;27.00;;;;;;;26.41;65.67;101631.28;5093801;28;20021;-66
2023/09/10 07:40:14;;;;;;;37.53;26.48;;;;;;;26.59;65.72;101635.94;5075873;28;20103;-66
2023/09/10 07:42:39;;;;;;;34.45;26.90;;;;;;;26.78;65.70;101637.88;5094103;28;20093;-66
2023/09/10 07:45:05;;;;;;;32.60;25.55;;;;;;;26.86;64.90;101635.69;5094022;28;20029;-67
2023/09/10 07:47:31;;;;;;;30.13;25.73;;;;;;;27.00;65.08;101643.22;5094126;28;20362;-67
2023/09/10 07:49:56;;;;;;;36.03;24.70;;;;;;;27.34;63.87;101639.84;5093835;28;20089;-67
2023/09/10 07:52:21;;;;;;;34.38;26.08;;;;;;;27.48;64.54;101644.63;5093624;28;20028;-66
2023/09/10 07:54:48;;;;;;;29.45;24.17;;;;;;;27.65;63.75;101648.28;5093687;28;20021;-67
2023/09/10 07:57:16;;;;;;;32.25;24.13;;;;;;;27.68;64.76;101650.88;5093820;28;20117;-67
2023/09/10 07:59:42;;;;;;;32.33;23.23;;;;;;;27.89;62.29;101648.13;5093620;28;20486;-66
2023/09/10 08:02:07;;;;;;;30.20;22.35;;;;;;;28.16;62.67;101641.28;5093745;28;20050;-67
2023/09/10 08:04:32;;;;;;;27.35;22.05;;;;;;;28.39;61.29;101645.63;5093728;28;20058;-67
2023/09/10 08:07:00;;;;;;;30.15;21.75;;;;;;;28.64;60.20;101656.09;5071660;28;20044;-62
2023/09/10 08:09:26;;;;;;;29.40;21.23;;;;;;;28.78;59.91;101657.19;5073536;28;20024;-61
2023/09/10 08:11:51;;;;;;;26.70;21.10;;;;;;;28.95;59.48;101660.81;5073385;28;20043;-61
2023/09/10 08:14:17;;;;;;;28.73;20.50;;;;;;;29.03;58.13;101660.41;5073245;28;20522;-61
2023/09/10 08:16:44;;;;;;;27.63;20.90;;;;;;;29.18;58.55;101670.50;5072153;28;20036;-62
2023/09/10 08:19:10;;;;;;;30.88;20.90;;;;;;;29.27;58.08;101663.66;5073007;28;20037;-61
2023/09/10 08:21:35;;;;;;;31.40;19.85;;;;;;;29.36;57.87;101657.72;5072950;28;20028;-61
2023/09/10 08:24:01;;;;;;;25.98;19.15;;;;;;;29.34;58.17;101659.66;5073063;28;20028;-61
2023/09/10 08:26:26;;;;;;;24.80;19.17;;;;;;;29.68;57.47;101642.34;5072790;28;20608;-61
2023/09/10 08:28:51;;;;;;;23.00;18.73;;;;;;;29.85;57.30;101646.81;5073239;28;20097;-60
2023/09/10 08:31:17;;;;;;;23.95;17.17;;;;;;;30.00;55.87;101642.31;5072914;28;20024;-62
2023/09/10 08:33:42;;;;;;;30.48;19.38;;;;;;;29.83;55.95;101642.41;5072719;28;20082;-61
2023/09/10 08:36:07;;;;;;;25.98;18.67;;;;;;;30.03;56.69;101639.44;5072620;28;20082;-60
2023/09/10 08:38:34;;;;;;;24.60;18.00;;;;;;;30.12;56.23;101643.47;5072240;28;20029;-61
2023/09/10 08:41:03;;;;;;;25.60;17.20;;;;;;;30.33;55.74;101641.34;5075362;28;20059;-62
2023/09/10 08:43:57;;;;;;;32.60;17.20;;;;;;;30.55;55.32;101636.34;5072955;28;20025;-61
2023/09/10 08:46:32;;;;;;;22.17;16.27;;;;;;;30.46;53.90;101642.38;5073094;28;20393;-62
2023/09/10 08:48:59;;;;;;;25.60;16.55;;;;;;;30.39;55.31;101638.25;5072792;28;20052;-62
2023/09/10 08:51:25;;;;;;;26.33;15.90;;;;;;;30.61;54.33;101638.69;5072902;28;20484;-62
2023/09/10 08:53:53;;;;;;;26.88;14.85;;;;;;;30.97;53.63;101644.75;5072001;28;20028;-61
2023/09/10 08:56:19;;;;;;;22.20;15.00;;;;;;;31.14;53.52;101650.91;5072469;28;20529;-61
2023/09/10 08:58:47;;;;;;;24.58;15.02;;;;;;;31.02;52.57;101646.22;5078881;28;20020;-62
2023/09/10 09:01:14;;;;;;;27.25;15.23;;;;;;;31.20;52.89;101644.19;5092923;28;20529;-62
2023/09/10 09:03:39;;;;;;;23.70;15.82;;;;;;;31.31;52.80;101638.97;5092881;28;20104;-61
2023/09/10 09:06:05;;;;;;;20.60;13.45;;;;;;;31.47;51.50;101643.41;5101681;28;20497;-61
2023/09/10 09:08:33;;;;;;;33.17;13.70;;;;;;;31.61;51.19;101646.16;5112983;28;20023;-65
2023/09/10 09:11:03;;;;;;;19.92;13.75;;;;;;;31.81;51.46;101639.38;5093141;28;20024;-62
2023/09/10 09:13:32;;;;;;;20.60;13.40;;;;;;;31.94;51.22;101639.47;5112298;28;20050;-62
2023/09/10 09:16:00;;;;;;;24.27;13.32;;;;;;;32.04;50.82;101637.88;5112745;28;20039;-62
2023/09/10 09:18:27;;;;;;;21.98;12.85;;;;;;;32.07;50.19;101635.81;5112875;28;20034;-62
2023/09/10 09:20:56;;;;;;;22.35;12.05;;;;;;;32.09;49.44;101635.72;5088612;28;20061;-61
2023/09/10 09:23:53;;;;;;;22.55;11.45;;;;;;;32.29;50.68;101629.78;5101823;28;20020;-61
2023/09/10 09:26:21;;;;;;;22.98;11.50;;;;;;;32.22;49.67;101635.75;5094886;28;20032;-62
2023/09/10 09:28:47;;;;;;;18.38;11.20;;;;;;;32.13;49.48;101635.41;5094450;28;20416;-62
2023/09/10 09:31:13;;;;;;;19.00;10.40;;;;;;;32.39;49.05;101628.19;5096547;28;20032;-62
2023/09/10 09:33:38;;;;;;;19.42;9.70;;;;;;;32.58;47.80;101633.25;5096811;28;20032;-62
2023/09/10 09:36:11;;;;;;;18.42;9.73;;;;;;;32.73;48.47;101631.31;5096541;28;20130;-63
2023/09/10 09:38:47;;;;;;;15.35;8.98;;;;;;;32.96;48.68;101637.06;5096611;28;20020;-61
2023/09/10 09:41:16;;;;;;;19.63;9.32;;;;;;;32.78;47.71;101628.25;5096143;28;20482;-62
2023/09/10 09:43:42;;;;;;;16.15;8.85;;;;;;;32.76;47.73;101636.59;5096280;28;20064;-62
2023/09/10 09:46:08;;;;;;;22.23;8.80;;;;;;;33.16;47.40;101622.81;5096146;28;20028;-61
2023/09/10 09:48:34;;;;;;;15.45;8.20;;;;;;;33.48;46.26;101625.97;5096170;28;20062;-62
2023/09/10 09:51:01;;;;;;;16.85;6.75;;;;;;;33.73;43.57;101621.41;5096001;28;20028;-62
2023/09/10 09:53:32;;;;;;;14.70;8.60;;;;;;;33.77;44.79;101618.34;5095979;28;20466;-62
2023/09/10 09:56:05;;;;;;;17.45;8.30;;;;;;;34.06;45.21;101621.66;5096040;28;20469;-62
2023/09/10 09:58:31;;;;;;;14.43;8.52;;;;;;;34.30;44.77;101612.53;5096295;28;20032;-61
2023/09/10 10:00:57;;;;;;;17.65;8.90;;;;;;;33.73;45.41;101614.06;5095862;28;20035;-61
2023/09/10 10:03:23;;;;;;;13.95;8.73;;;;;;;33.54;45.58;101619.19;5096174;28;20081;-61
2023/09/10 10:05:50;;;;;;;15.88;8.07;;;;;;;33.84;46.05;101614.16;5095687;28;20052;-61
2023/09/10 10:08:16;;;;;;;14.40;8.02;;;;;;;34.12;44.95;101609.34;5095839;28;20048;-62
2023/09/10 10:10:47;;;;;;;14.75;8.18;;;;;;;34.38;45.01;101607.31;5095759;28;20490;-62
2023/09/10 10:13:16;;;;;;;14.45;7.95;;;;;;;34.82;44.43;101603.88;5095635;28;20442;-62
2023/09/10 10:15:42;;;;;;;15.88;7.35;;;;;;;34.78;43.33;101602.38;5095893;28;20095;-62
2023/09/10 10:18:08;;;;;;;15.45;6.97;;;;;;;34.88;43.93;101603.38;5095963;28;20032;-62
2023/09/10 10:20:34;;;;;;;13.77;7.00;;;;;;;35.01;42.92;101611.53;5106941;28;20042;-60
2023/09/10 10:23:00;;;;;;;15.90;6.63;;;;;;;35.64;42.34;101597.31;5115902;28;20035;-63
2023/09/10 10:25:26;;;;;;;14.20;7.18;;;;;;;36.01;41.89;101597.84;5107030;28;20128;-61
2023/09/10 10:27:55;;;;;;;17.48;7.32;;;;;;;35.79;41.14;101602.38;5100416;28;20517;-61
2023/09/10 10:30:22;;;;;;;20.33;6.95;;;;;;;36.03;39.14;101598.59;5095350;28;20069;-62
2023/09/10 10:32:50;;;;;;;12.07;6.82;;;;;;;35.82;40.47;101588.38;5095455;28;20030;-62
2023/09/10 10:35:16;;;;;;;11.25;6.38;;;;;;;35.96;40.63;101595.47;5095479;28;20031;-62
2023/09/10 10:37:51;;;;;;;11.45;6.20;;;;;;;36.31;40.11;101595.19;5077059;28;20032;-62
2023/09/10 10:40:27;;;;;;;15.63;6.13;;;;;;;36.42;40.46;101598.91;5094651;28;20424;-63
2023/09/10 10:42:55;;;;;;;15.07;6.40;;;;;;;36.61;38.92;101588.06;5095235;28;20488;-62
2023/09/10 10:45:24;;;;;;;13.85;5.95;;;;;;;36.64;39.06;101596.06;5095234;28;20057;-62
2023/09/10 10:47:50;;;;;;;13.95;5.90;;;;;;;36.89;38.01;101589.25;5095312;28;20074;-62
2023/09/10 10:50:24;;;;;;;12.82;5.60;;;;;;;36.89;37.05;101589.25;5095147;28;20054;-61
2023/09/10 10:52:59;;;;;;;15.30;5.70;;;;;;;36.96;37.59;101589.59;5099713;28;20055;-62
2023/09/10 10:55:26;;;;;;;14.73;5.25;;;;;;;37.04;35.30;101581.53;5105493;28;20473;-62
2023/09/10 10:57:53;;;;;;;10.60;5.60;;;;;;;37.21;36.21;101580.00;5112134;28;20035;-61
2023/09/10 11:00:19;;;;;;;15.05;5.78;;;;;;;37.04;36.34;101574.13;5093346;28;20031;-62
2023/09/10 11:02:48;;;;;;;13.10;5.80;;;;;;;37.34;36.94;101575.97;5110842;28;20105;-60
2023/09/10 11:05:14;;;;;;;12.10;5.78;;;;;;;37.45;36.92;101576.94;5105914;28;20104;-62
2023/09/10 11:07:39;;;;;;;11.93;5.68;;;;;;;37.48;36.25;101573.91;5108422;28;20427;-60
2023/09/10 11:10:29;;;;;;;16.38;5.63;;;;;;;37.83;36.45;101565.97;5109117;28;20457;-60